sensor_id;sensor_type;location;lat;lon;timestamp;pressure;altitude;pressure_sealevel;temperature;humidity
68654;BME280;55636;51.108;13.622;2022-10-26T00:00:28;100625.28;;;9.81;66.58
68654;BME280;55636;51.108;13.622;2022-10-26T00:01:30;100624.44;;;9.81;66.68
68654;BME280;55636;51.108;13.622;2022-10-26T00:02:32;100629.13;;;9.80;66.65
68654;BME280;55636;51.108;13.622;2022-10-26T00:03:36;100630.22;;;9.79;66.58
68654;BME280;55636;51.108;13.622;2022-10-26T00:04:38;100631.91;;;9.80;66.66
68654;BME280;55636;51.108;13.622;2022-10-26T00:05:40;100624.94;;;9.78;66.62
68654;BME280;55636;51.108;13.622;2022-10-26T00:06:43;100627.72;;;9.78;66.62
68654;BME280;55636;51.108;13.622;2022-10-26T00:07:45;100625.78;;;9.78;66.42
68654;BME280;55636;51.108;13.622;2022-10-26T00:08:48;100626.28;;;9.75;66.50
68654;BME280;55636;51.108;13.622;2022-10-26T00:09:50;100624.59;;;9.74;66.68
68654;BME280;55636;51.108;13.622;2022-10-26T00:10:56;100630.13;;;9.74;66.70
68654;BME280;55636;51.108;13.622;2022-10-26T00:11:58;100628.44;;;9.73;66.79
68654;BME280;55636;51.108;13.622;2022-10-26T00:13:01;100626.53;;;9.74;66.54
68654;BME280;55636;51.108;13.622;2022-10-26T00:14:03;100631.19;;;9.73;66.75
68654;BME280;55636;51.108;13.622;2022-10-26T00:15:06;100632.31;;;9.72;66.75
68654;BME280;55636;51.108;13.622;2022-10-26T00:16:13;100638.66;;;9.73;66.71
68654;BME280;55636;51.108;13.622;2022-10-26T00:17:16;100633.41;;;9.71;66.64
68654;BME280;55636;51.108;13.622;2022-10-26T00:18:18;100638.06;;;9.70;66.61
68654;BME280;55636;51.108;13.622;2022-10-26T00:19:21;100634.72;;;9.68;66.73
68654;BME280;55636;51.108;13.622;2022-10-26T00:20:23;100638.31;;;9.69;66.92
68654;BME280;55636;51.108;13.622;2022-10-26T00:21:26;100640.50;;;9.67;66.84
68654;BME280;55636;51.108;13.622;2022-10-26T00:22:28;100639.63;;;9.66;66.79
68654;BME280;55636;51.108;13.622;2022-10-26T00:23:31;100644.34;;;9.66;66.87
68654;BME280;55636;51.108;13.622;2022-10-26T00:24:33;100639.88;;;9.65;66.78
68654;BME280;55636;51.108;13.622;2022-10-26T00:25:35;100644.84;;;9.63;66.93
68654;BME280;55636;51.108;13.622;2022-10-26T00:26:38;100642.91;;;9.63;66.86
68654;BME280;55636;51.108;13.622;2022-10-26T00:27:40;100641.22;;;9.62;66.94
68654;BME280;55636;51.108;13.622;2022-10-26T00:28:43;100647.00;;;9.61;66.70
68654;BME280;55636;51.108;13.622;2022-10-26T00:29:45;100631.53;;;9.60;66.95
68654;BME280;55636;51.108;13.622;2022-10-26T00:30:47;100641.72;;;9.59;67.02
68654;BME280;55636;51.108;13.622;2022-10-26T00:31:49;100640.06;;;9.58;66.91
68654;BME280;55636;51.108;13.622;2022-10-26T00:32:52;100641.97;;;9.58;66.86
68654;BME280;55636;51.108;13.622;2022-10-26T00:33:55;100643.06;;;9.57;66.97
68654;BME280;55636;51.108;13.622;2022-10-26T00:34:58;100646.06;;;9.55;66.93
68654;BME280;55636;51.108;13.622;2022-10-26T00:36:21;100644.97;;;9.56;66.97
68654;BME280;55636;51.108;13.622;2022-10-26T00:37:24;100640.56;;;9.55;66.67
68654;BME280;55636;51.108;13.622;2022-10-26T00:38:28;100642.47;;;9.54;67.05
68654;BME280;55636;51.108;13.622;2022-10-26T00:39:31;100638.88;;;9.54;66.73
68654;BME280;55636;51.108;13.622;2022-10-26T00:40:33;100644.38;;;9.54;66.78
68654;BME280;55636;51.108;13.622;2022-10-26T00:41:35;100641.88;;;9.52;66.81
68654;BME280;55636;51.108;13.622;2022-10-26T00:42:38;100642.97;;;9.51;67.05
68654;BME280;55636;51.108;13.622;2022-10-26T00:43:40;100644.88;;;9.51;66.91
68654;BME280;55636;51.108;13.622;2022-10-26T00:45:52;100644.03;;;9.50;67.04
68654;BME280;55636;51.108;13.622;2022-10-26T00:46:56;100637.91;;;9.48;66.91
68654;BME280;55636;51.108;13.622;2022-10-26T00:48:02;100643.44;;;9.48;67.08
68654;BME280;55636;51.108;13.622;2022-10-26T00:49:14;100648.13;;;9.48;66.97
68654;BME280;55636;51.108;13.622;2022-10-26T00:50:38;100648.94;;;9.48;67.03
68654;BME280;55636;51.108;13.622;2022-10-26T00:51:52;100643.69;;;9.47;66.87
68654;BME280;55636;51.108;13.622;2022-10-26T00:52:56;100643.69;;;9.47;66.88
68654;BME280;55636;51.108;13.622;2022-10-26T00:54:03;100640.34;;;9.45;66.86
68654;BME280;55636;51.108;13.622;2022-10-26T00:55:07;100645.00;;;9.44;66.86
68654;BME280;55636;51.108;13.622;2022-10-26T00:56:11;100641.44;;;9.44;66.81
68654;BME280;55636;51.108;13.622;2022-10-26T00:57:15;100643.59;;;9.42;67.02
68654;BME280;55636;51.108;13.622;2022-10-26T00:58:19;100638.31;;;9.40;66.95
68654;BME280;55636;51.108;13.622;2022-10-26T00:59:23;100640.25;;;9.40;66.95
68654;BME280;55636;51.108;13.622;2022-10-26T01:00:25;100640.50;;;9.38;67.02
68654;BME280;55636;51.108;13.622;2022-10-26T01:01:28;100642.41;;;9.37;66.87
68654;BME280;55636;51.108;13.622;2022-10-26T01:02:32;100647.09;;;9.37;66.98
68654;BME280;55636;51.108;13.622;2022-10-26T01:03:35;100647.34;;;9.35;67.08
68654;BME280;55636;51.108;13.622;2022-10-26T01:04:39;100648.44;;;9.34;67.12
68654;BME280;55636;51.108;13.622;2022-10-26T01:05:43;100644.00;;;9.33;67.04
68654;BME280;55636;51.108;13.622;2022-10-26T01:06:47;100644.81;;;9.34;67.04
68654;BME280;55636;51.108;13.622;2022-10-26T01:07:50;100642.31;;;9.32;67.08
68654;BME280;55636;51.108;13.622;2022-10-26T01:08:53;100640.63;;;9.31;67.12
68654;BME280;55636;51.108;13.622;2022-10-26T01:09:55;100642.56;;;9.31;67.04
68654;BME280;55636;51.108;13.622;2022-10-26T01:10:58;100643.63;;;9.30;67.09
68654;BME280;55636;51.108;13.622;2022-10-26T01:12:01;100640.88;;;9.30;67.21
68654;BME280;55636;51.108;13.622;2022-10-26T01:13:04;100641.72;;;9.30;67.19
68654;BME280;55636;51.108;13.622;2022-10-26T01:14:08;100640.88;;;9.30;67.13
68654;BME280;55636;51.108;13.622;2022-10-26T01:15:11;100637.53;;;9.28;67.06
68654;BME280;55636;51.108;13.622;2022-10-26T01:18:07;100641.38;;;9.27;67.25
68654;BME280;55636;51.108;13.622;2022-10-26T01:21:53;100629.38;;;9.21;67.37
68654;BME280;55636;51.108;13.622;2022-10-26T01:23:19;100628.56;;;9.20;67.35
68654;BME280;55636;51.108;13.622;2022-10-26T01:31:26;100627.88;;;9.13;67.39
68654;BME280;55636;51.108;13.622;2022-10-26T01:33:44;100622.84;;;9.10;67.62
68654;BME280;55636;51.108;13.622;2022-10-26T01:35:01;100629.44;;;9.09;67.62
68654;BME280;55636;51.108;13.622;2022-10-26T01:37:22;100625.25;;;9.07;67.53
68654;BME280;55636;51.108;13.622;2022-10-26T01:38:56;100626.94;;;9.08;67.55
68654;BME280;55636;51.108;13.622;2022-10-26T01:40:14;100623.34;;;9.07;67.75
68654;BME280;55636;51.108;13.622;2022-10-26T01:41:26;100628.25;;;9.05;67.78
68654;BME280;55636;51.108;13.622;2022-10-26T01:42:29;100619.97;;;9.05;67.61
68654;BME280;55636;51.108;13.622;2022-10-26T01:43:37;100622.75;;;9.05;67.66
68654;BME280;55636;51.108;13.622;2022-10-26T01:44:48;100632.94;;;9.04;67.74
68654;BME280;55636;51.108;13.622;2022-10-26T01:45:53;100624.91;;;9.03;67.65
68654;BME280;55636;51.108;13.622;2022-10-26T01:46:57;100622.16;;;9.03;67.90
68654;BME280;55636;51.108;13.622;2022-10-26T01:48:01;100628.75;;;9.02;67.76
68654;BME280;55636;51.108;13.622;2022-10-26T01:49:10;100624.56;;;8.99;67.93
68654;BME280;55636;51.108;13.622;2022-10-26T01:50:12;100627.31;;;8.99;67.78
68654;BME280;55636;51.108;13.622;2022-10-26T01:51:16;100632.81;;;8.99;67.93
68654;BME280;55636;51.108;13.622;2022-10-26T01:52:20;100630.31;;;8.98;67.85
68654;BME280;55636;51.108;13.622;2022-10-26T01:53:24;100623.97;;;8.97;67.90
68654;BME280;55636;51.108;13.622;2022-10-26T01:54:27;100629.72;;;8.96;67.93
68654;BME280;55636;51.108;13.622;2022-10-26T01:55:47;100629.72;;;8.96;67.99
68654;BME280;55636;51.108;13.622;2022-10-26T01:56:56;100628.63;;;8.97;67.96
68654;BME280;55636;51.108;13.622;2022-10-26T01:58:12;100628.03;;;8.95;67.88
68654;BME280;55636;51.108;13.622;2022-10-26T02:00:24;100628.88;;;8.95;67.73
68654;BME280;55636;51.108;13.622;2022-10-26T02:07:05;100630.47;;;8.91;67.74
68654;BME280;55636;51.108;13.622;2022-10-26T02:11:45;100625.66;;;8.86;67.78
68654;BME280;55636;51.108;13.622;2022-10-26T02:15:36;100623.97;;;8.85;67.74
68654;BME280;55636;51.108;13.622;2022-10-26T02:20:52;100620.28;;;8.80;67.79
68654;BME280;55636;51.108;13.622;2022-10-26T02:22:04;100630.44;;;8.79;67.86
68654;BME280;55636;51.108;13.622;2022-10-26T02:23:08;100629.03;;;8.77;67.87
68654;BME280;55636;51.108;13.622;2022-10-26T02:24:12;100624.38;;;8.77;68.03
68654;BME280;55636;51.108;13.622;2022-10-26T02:25:21;100623.75;;;8.75;67.91
68654;BME280;55636;51.108;13.622;2022-10-26T02:26:27;100624.63;;;8.76;67.99
68654;BME280;55636;51.108;13.622;2022-10-26T02:27:34;100623.75;;;8.75;67.94
68654;BME280;55636;51.108;13.622;2022-10-26T02:28:42;100618.25;;;8.75;68.08
68654;BME280;55636;51.108;13.622;2022-10-26T02:29:47;100618.47;;;8.74;68.06
68654;BME280;55636;51.108;13.622;2022-10-26T02:30:53;100608.53;;;8.72;68.09
68654;BME280;55636;51.108;13.622;2022-10-26T02:31:58;100613.22;;;8.72;68.13
68654;BME280;55636;51.108;13.622;2022-10-26T02:33:03;100609.84;;;8.70;68.08
68654;BME280;55636;51.108;13.622;2022-10-26T02:34:10;100605.19;;;8.70;68.13
68654;BME280;55636;51.108;13.622;2022-10-26T02:35:15;100614.53;;;8.69;68.23
68654;BME280;55636;51.108;13.622;2022-10-26T02:36:25;100610.69;;;8.70;68.25
68654;BME280;55636;51.108;13.622;2022-10-26T02:37:31;100610.94;;;8.69;68.22
68654;BME280;55636;51.108;13.622;2022-10-26T02:38:36;100618.09;;;8.70;68.30
68654;BME280;55636;51.108;13.622;2022-10-26T02:39:40;100607.34;;;8.68;68.16
68654;BME280;55636;51.108;13.622;2022-10-26T02:40:46;100613.69;;;8.69;68.15
68654;BME280;55636;51.108;13.622;2022-10-26T02:41:50;100612.84;;;8.68;68.29
68654;BME280;55636;51.108;13.622;2022-10-26T02:42:56;100614.78;;;8.68;68.18
68654;BME280;55636;51.108;13.622;2022-10-26T02:44:04;100617.78;;;8.66;68.34
68654;BME280;55636;51.108;13.622;2022-10-26T02:45:11;100620.53;;;8.66;68.15
68654;BME280;55636;51.108;13.622;2022-10-26T02:46:17;100613.34;;;8.65;68.33
68654;BME280;55636;51.108;13.622;2022-10-26T02:47:21;100611.41;;;8.66;68.34
68654;BME280;55636;51.108;13.622;2022-10-26T02:48:26;100616.09;;;8.65;68.35
68654;BME280;55636;51.108;13.622;2022-10-26T02:49:29;100613.34;;;8.65;68.43
68654;BME280;55636;51.108;13.622;2022-10-26T02:50:37;100602.31;;;8.65;68.29
68654;BME280;55636;51.108;13.622;2022-10-26T02:51:48;100605.31;;;8.64;68.39
68654;BME280;55636;51.108;13.622;2022-10-26T02:54:20;100608.28;;;8.62;68.34
68654;BME280;55636;51.108;13.622;2022-10-26T02:55:35;100612.47;;;8.65;68.35
68654;BME280;55636;51.108;13.622;2022-10-26T02:56:55;100611.03;;;8.62;68.50
68654;BME280;55636;51.108;13.622;2022-10-26T02:58:02;100612.16;;;8.61;68.23
68654;BME280;55636;51.108;13.622;2022-10-26T02:59:07;100607.47;;;8.62;68.35
68654;BME280;55636;51.108;13.622;2022-10-26T03:00:15;100609.63;;;8.60;68.21
68654;BME280;55636;51.108;13.622;2022-10-26T03:01:18;100608.53;;;8.61;68.15
68654;BME280;55636;51.108;13.622;2022-10-26T03:02:21;100611.28;;;8.61;68.24
68654;BME280;55636;51.108;13.622;2022-10-26T03:03:23;100610.72;;;8.59;68.07
68654;BME280;55636;51.108;13.622;2022-10-26T03:04:30;100611.53;;;8.59;68.24
68654;BME280;55636;51.108;13.622;2022-10-26T03:05:33;100606.28;;;8.58;68.00
68654;BME280;55636;51.108;13.622;2022-10-26T03:06:37;100606.28;;;8.58;68.21
68654;BME280;55636;51.108;13.622;2022-10-26T03:07:40;100605.66;;;8.55;68.20
68654;BME280;55636;51.108;13.622;2022-10-26T03:08:42;100603.78;;;8.56;68.24
68654;BME280;55636;51.108;13.622;2022-10-26T03:09:44;100608.44;;;8.55;68.08
68654;BME280;55636;51.108;13.622;2022-10-26T03:10:46;100605.09;;;8.53;68.16
68654;BME280;55636;51.108;13.622;2022-10-26T03:11:48;100604.25;;;8.53;68.14
68654;BME280;55636;51.108;13.622;2022-10-26T03:12:51;100608.91;;;8.52;68.11
68654;BME280;55636;51.108;13.622;2022-10-26T03:13:53;100607.00;;;8.53;68.19
68654;BME280;55636;51.108;13.622;2022-10-26T03:14:55;100605.31;;;8.52;68.10
68654;BME280;55636;51.108;13.622;2022-10-26T03:15:58;100611.91;;;8.51;68.12
68654;BME280;55636;51.108;13.622;2022-10-26T03:17:00;100614.69;;;8.51;68.17
68654;BME280;55636;51.108;13.622;2022-10-26T03:18:04;100606.41;;;8.51;68.15
68654;BME280;55636;51.108;13.622;2022-10-26T03:19:06;100607.47;;;8.50;68.28
68654;BME280;55636;51.108;13.622;2022-10-26T03:20:09;100604.72;;;8.50;68.15
68654;BME280;55636;51.108;13.622;2022-10-26T03:21:13;100611.31;;;8.49;68.12
68654;BME280;55636;51.108;13.622;2022-10-26T03:22:15;100613.25;;;8.48;68.09
68654;BME280;55636;51.108;13.622;2022-10-26T03:23:17;100611.56;;;8.47;68.25
68654;BME280;55636;51.108;13.622;2022-10-26T03:24:19;100607.97;;;8.47;68.33
68654;BME280;55636;51.108;13.622;2022-10-26T03:25:23;100617.06;;;8.47;68.25
68654;BME280;55636;51.108;13.622;2022-10-26T03:26:25;100610.94;;;8.45;68.29
68654;BME280;55636;51.108;13.622;2022-10-26T03:27:27;100609.06;;;8.46;68.20
68654;BME280;55636;51.108;13.622;2022-10-26T03:28:30;100612.88;;;8.45;68.44
68654;BME280;55636;51.108;13.622;2022-10-26T03:29:33;100608.44;;;8.44;68.49
68654;BME280;55636;51.108;13.622;2022-10-26T03:30:35;100598.50;;;8.43;68.25
68654;BME280;55636;51.108;13.622;2022-10-26T03:31:37;100609.50;;;8.43;68.40
68654;BME280;55636;51.108;13.622;2022-10-26T03:32:39;100608.69;;;8.42;68.40
68654;BME280;55636;51.108;13.622;2022-10-26T03:33:42;100615.00;;;8.43;68.31
68654;BME280;55636;51.108;13.622;2022-10-26T03:34:47;100609.50;;;8.43;68.37
68654;BME280;55636;51.108;13.622;2022-10-26T03:35:54;100610.63;;;8.42;68.32
68654;BME280;55636;51.108;13.622;2022-10-26T03:36:57;100610.63;;;8.42;68.46
68654;BME280;55636;51.108;13.622;2022-10-26T03:37:59;100611.69;;;8.41;68.41
68654;BME280;55636;51.108;13.622;2022-10-26T03:39:02;100617.19;;;8.41;68.38
68654;BME280;55636;51.108;13.622;2022-10-26T03:40:04;100618.00;;;8.41;68.50
68654;BME280;55636;51.108;13.622;2022-10-26T03:41:07;100615.25;;;8.41;68.41
68654;BME280;55636;51.108;13.622;2022-10-26T03:42:09;100608.06;;;8.40;68.28
68654;BME280;55636;51.108;13.622;2022-10-26T03:43:11;100619.09;;;8.40;68.56
68654;BME280;55636;51.108;13.622;2022-10-26T03:44:13;100613.56;;;8.40;68.51
68654;BME280;55636;51.108;13.622;2022-10-26T03:45:15;100614.69;;;8.39;68.46
68654;BME280;55636;51.108;13.622;2022-10-26T03:46:18;100613.81;;;8.38;68.59
68654;BME280;55636;51.108;13.622;2022-10-26T03:47:20;100605.56;;;8.38;68.55
68654;BME280;55636;51.108;13.622;2022-10-26T03:48:22;100611.06;;;8.38;68.59
68654;BME280;55636;51.108;13.622;2022-10-26T03:49:24;100613.81;;;8.38;68.66
68654;BME280;55636;51.108;13.622;2022-10-26T03:50:26;100611.06;;;8.38;68.53
68654;BME280;55636;51.108;13.622;2022-10-26T03:51:29;100613.00;;;8.38;68.40
68654;BME280;55636;51.108;13.622;2022-10-26T03:52:31;100613.00;;;8.38;68.49
68654;BME280;55636;51.108;13.622;2022-10-26T03:53:33;100611.31;;;8.37;68.43
68654;BME280;55636;51.108;13.622;2022-10-26T03:54:35;100605.81;;;8.37;68.45
68654;BME280;55636;51.108;13.622;2022-10-26T03:55:38;100612.16;;;8.37;68.42
68654;BME280;55636;51.108;13.622;2022-10-26T03:56:40;100610.50;;;8.36;68.55
68654;BME280;55636;51.108;13.622;2022-10-26T03:57:43;100616.81;;;8.37;68.47
68654;BME280;55636;51.108;13.622;2022-10-26T03:58:46;100618.13;;;8.34;68.54
68654;BME280;55636;51.108;13.622;2022-10-26T03:59:48;100616.22;;;8.35;68.43
68654;BME280;55636;51.108;13.622;2022-10-26T04:00:50;100614.56;;;8.34;68.59
68654;BME280;55636;51.108;13.622;2022-10-26T04:01:53;100624.47;;;8.35;68.46
68654;BME280;55636;51.108;13.622;2022-10-26T04:02:59;100607.13;;;8.34;68.41
68654;BME280;55636;51.108;13.622;2022-10-26T04:04:01;100612.63;;;8.34;68.43
68654;BME280;55636;51.108;13.622;2022-10-26T04:05:03;100616.47;;;8.33;68.51
68654;BME280;55636;51.108;13.622;2022-10-26T04:06:06;100619.22;;;8.33;68.43
68654;BME280;55636;51.108;13.622;2022-10-26T04:07:09;100608.44;;;8.32;68.45
68654;BME280;55636;51.108;13.622;2022-10-26T04:08:12;100621.38;;;8.31;68.37
68654;BME280;55636;51.108;13.622;2022-10-26T04:09:14;100615.88;;;8.31;68.55
68654;BME280;55636;51.108;13.622;2022-10-26T04:10:16;100615.03;;;8.31;68.35
68654;BME280;55636;51.108;13.622;2022-10-26T04:11:18;100609.50;;;8.31;68.27
68654;BME280;55636;51.108;13.622;2022-10-26T04:12:21;100607.84;;;8.30;68.43
68654;BME280;55636;51.108;13.622;2022-10-26T04:13:23;100611.69;;;8.29;68.53
68654;BME280;55636;51.108;13.622;2022-10-26T04:14:25;100608.06;;;8.28;68.46
68654;BME280;55636;51.108;13.622;2022-10-26T04:15:28;100612.75;;;8.28;68.52
68654;BME280;55636;51.108;13.622;2022-10-26T04:16:30;100614.69;;;8.27;68.53
68654;BME280;55636;51.108;13.622;2022-10-26T04:17:34;100611.94;;;8.27;68.58
68654;BME280;55636;51.108;13.622;2022-10-26T04:18:36;100617.44;;;8.27;68.46
68654;BME280;55636;51.108;13.622;2022-10-26T04:19:41;100618.50;;;8.26;68.43
68654;BME280;55636;51.108;13.622;2022-10-26T04:20:43;100620.19;;;8.27;68.40
68654;BME280;55636;51.108;13.622;2022-10-26T04:21:53;100624.25;;;8.25;68.60
68654;BME280;55636;51.108;13.622;2022-10-26T04:23:04;100619.56;;;8.25;68.65
68654;BME280;55636;51.108;13.622;2022-10-26T04:24:06;100616.00;;;8.25;68.46
68654;BME280;55636;51.108;13.622;2022-10-26T04:25:09;100621.72;;;8.23;68.53
68654;BME280;55636;51.108;13.622;2022-10-26T04:26:12;100612.63;;;8.22;68.47
68654;BME280;55636;51.108;13.622;2022-10-26T04:27:14;100609.88;;;8.22;68.51
68654;BME280;55636;51.108;13.622;2022-10-26T04:28:16;100610.94;;;8.21;68.55
68654;BME280;55636;51.108;13.622;2022-10-26T04:29:19;100609.28;;;8.20;68.43
68654;BME280;55636;51.108;13.622;2022-10-26T04:30:21;100608.44;;;8.20;68.41
68654;BME280;55636;51.108;13.622;2022-10-26T04:31:23;100610.38;;;8.19;68.47
68654;BME280;55636;51.108;13.622;2022-10-26T04:32:25;100609.50;;;8.19;68.58
68654;BME280;55636;51.108;13.622;2022-10-26T04:33:28;100603.44;;;8.17;68.70
68654;BME280;55636;51.108;13.622;2022-10-26T04:34:30;100607.00;;;8.17;68.50
68654;BME280;55636;51.108;13.622;2022-10-26T04:35:34;100606.19;;;8.17;68.56
68654;BME280;55636;51.108;13.622;2022-10-26T04:36:39;100614.19;;;8.18;68.55
68654;BME280;55636;51.108;13.622;2022-10-26T04:37:41;100607.00;;;8.17;68.62
68654;BME280;55636;51.108;13.622;2022-10-26T04:38:43;100608.69;;;8.18;68.60
68654;BME280;55636;51.108;13.622;2022-10-26T04:39:46;100608.06;;;8.16;68.53
68654;BME280;55636;51.108;13.622;2022-10-26T04:40:49;100615.50;;;8.16;68.59
68654;BME280;55636;51.108;13.622;2022-10-26T04:41:53;100606.41;;;8.15;68.63
68654;BME280;55636;51.108;13.622;2022-10-26T04:42:55;100609.16;;;8.15;68.49
68654;BME280;55636;51.108;13.622;2022-10-26T04:43:58;100601.75;;;8.16;68.51
68654;BME280;55636;51.108;13.622;2022-10-26T04:45:00;100600.88;;;8.15;68.60
68654;BME280;55636;51.108;13.622;2022-10-26T04:46:02;100608.31;;;8.15;68.43
68654;BME280;55636;51.108;13.622;2022-10-26T04:47:04;100597.31;;;8.15;68.52
68654;BME280;55636;51.108;13.622;2022-10-26T04:48:10;100595.63;;;8.14;68.59
68654;BME280;55636;51.108;13.622;2022-10-26T04:49:12;100589.53;;;8.12;68.61
68654;BME280;55636;51.108;13.622;2022-10-26T04:50:15;100587.63;;;8.12;68.69
68654;BME280;55636;51.108;13.622;2022-10-26T04:51:18;100591.44;;;8.11;68.63
68654;BME280;55636;51.108;13.622;2022-10-26T04:52:20;100587.88;;;8.11;68.73
68654;BME280;55636;51.108;13.622;2022-10-26T04:53:23;100599.69;;;8.11;68.56
68654;BME280;55636;51.108;13.622;2022-10-26T04:54:25;100596.13;;;8.11;68.54
68654;BME280;55636;51.108;13.622;2022-10-26T04:55:27;100594.44;;;8.10;68.56
68654;BME280;55636;51.108;13.622;2022-10-26T04:56:29;100594.44;;;8.10;68.74
68654;BME280;55636;51.108;13.622;2022-10-26T04:57:34;100602.69;;;8.10;68.84
68654;BME280;55636;51.108;13.622;2022-10-26T04:58:37;100603.75;;;8.09;68.71
68654;BME280;55636;51.108;13.622;2022-10-26T04:59:39;100601.00;;;8.09;68.60
68654;BME280;55636;51.108;13.622;2022-10-26T05:00:41;100590.00;;;8.09;68.58
68654;BME280;55636;51.108;13.622;2022-10-26T05:01:43;100591.06;;;8.08;68.68
68654;BME280;55636;51.108;13.622;2022-10-26T05:02:46;100602.09;;;8.08;68.67
68654;BME280;55636;51.108;13.622;2022-10-26T05:03:51;100599.56;;;8.06;68.62
68654;BME280;55636;51.108;13.622;2022-10-26T05:04:54;100605.94;;;8.07;68.67
68654;BME280;55636;51.108;13.622;2022-10-26T05:05:57;100598.75;;;8.05;68.61
68654;BME280;55636;51.108;13.622;2022-10-26T05:07:00;100603.63;;;8.03;68.65
68654;BME280;55636;51.108;13.622;2022-10-26T05:08:03;100598.13;;;8.03;68.62
68654;BME280;55636;51.108;13.622;2022-10-26T05:09:05;100592.63;;;8.03;68.62
68654;BME280;55636;51.108;13.622;2022-10-26T05:10:08;100599.22;;;8.02;68.73
68654;BME280;55636;51.108;13.622;2022-10-26T05:11:11;100593.72;;;8.02;68.61
68654;BME280;55636;51.108;13.622;2022-10-26T05:12:13;100583.78;;;8.01;68.67
68654;BME280;55636;51.108;13.622;2022-10-26T05:13:15;100587.38;;;8.02;68.65
68654;BME280;55636;51.108;13.622;2022-10-26T05:14:18;100589.53;;;8.00;68.73
68654;BME280;55636;51.108;13.622;2022-10-26T05:15:20;100593.13;;;8.00;68.62
68654;BME280;55636;51.108;13.622;2022-10-26T05:16:23;100596.69;;;8.01;68.65
68654;BME280;55636;51.108;13.622;2022-10-26T05:17:25;100595.03;;;8.00;68.67
68654;BME280;55636;51.108;13.622;2022-10-26T05:18:27;100599.69;;;7.99;68.64
68654;BME280;55636;51.108;13.622;2022-10-26T05:19:30;100597.78;;;8.00;68.58
68654;BME280;55636;51.108;13.622;2022-10-26T05:20:34;100588.69;;;7.99;68.75
68654;BME280;55636;51.108;13.622;2022-10-26T05:21:36;100587.88;;;7.99;68.57
68654;BME280;55636;51.108;13.622;2022-10-26T05:22:39;100592.50;;;7.98;68.73
68654;BME280;55636;51.108;13.622;2022-10-26T05:23:42;100581.16;;;7.95;68.68
68654;BME280;55636;51.108;13.622;2022-10-26T05:24:44;100587.50;;;7.95;68.71
68654;BME280;55636;51.108;13.622;2022-10-26T05:25:47;100587.50;;;7.95;68.66
68654;BME280;55636;51.108;13.622;2022-10-26T05:26:49;100591.31;;;7.94;68.80
68654;BME280;55636;51.108;13.622;2022-10-26T05:27:56;100584.97;;;7.94;68.84
68654;BME280;55636;51.108;13.622;2022-10-26T05:28:58;100587.72;;;7.94;68.81
68654;BME280;55636;51.108;13.622;2022-10-26T05:30:00;100586.06;;;7.93;68.86
68654;BME280;55636;51.108;13.622;2022-10-26T05:31:03;100599.56;;;7.94;68.90
68654;BME280;55636;51.108;13.622;2022-10-26T05:32:05;100589.63;;;7.93;68.75
68654;BME280;55636;51.108;13.622;2022-10-26T05:33:09;100601.50;;;7.94;68.67
68654;BME280;55636;51.108;13.622;2022-10-26T05:34:11;100599.81;;;7.93;68.85
68654;BME280;55636;51.108;13.622;2022-10-26T05:35:13;100600.88;;;7.92;68.77
68654;BME280;55636;51.108;13.622;2022-10-26T05:36:19;100598.97;;;7.92;68.85
68654;BME280;55636;51.108;13.622;2022-10-26T05:37:21;100593.47;;;7.92;68.86
68654;BME280;55636;51.108;13.622;2022-10-26T05:38:23;100592.03;;;7.89;68.92
68654;BME280;55636;51.108;13.622;2022-10-26T05:39:46;100607.69;;;7.89;68.94
68654;BME280;55636;51.108;13.622;2022-10-26T05:40:53;100602.19;;;7.89;68.91
68654;BME280;55636;51.108;13.622;2022-10-26T05:41:55;100596.94;;;7.87;68.93
68654;BME280;55636;51.108;13.622;2022-10-26T05:43:02;100591.66;;;7.86;69.04
68654;BME280;55636;51.108;13.622;2022-10-26T05:44:04;100586.16;;;7.86;68.82
68654;BME280;55636;51.108;13.622;2022-10-26T05:45:07;100597.41;;;7.84;69.01
68654;BME280;55636;51.108;13.622;2022-10-26T05:46:09;100595.47;;;7.85;68.83
68654;BME280;55636;51.108;13.622;2022-10-26T05:47:11;100592.75;;;7.85;68.88
68654;BME280;55636;51.108;13.622;2022-10-26T05:48:13;100592.75;;;7.85;69.04
68654;BME280;55636;51.108;13.622;2022-10-26T05:49:16;100600.38;;;7.83;68.86
68654;BME280;55636;51.108;13.622;2022-10-26T05:50:18;100602.78;;;7.79;69.11
68654;BME280;55636;51.108;13.622;2022-10-26T05:51:20;100600.84;;;7.80;69.08
68654;BME280;55636;51.108;13.622;2022-10-26T05:52:22;100600.28;;;7.78;69.05
68654;BME280;55636;51.108;13.622;2022-10-26T05:53:25;100610.19;;;7.79;69.14
68654;BME280;55636;51.108;13.622;2022-10-26T05:54:27;100598.34;;;7.78;69.11
68654;BME280;55636;51.108;13.622;2022-10-26T05:55:30;100607.41;;;7.79;69.13
68654;BME280;55636;51.108;13.622;2022-10-26T05:57:36;100602.78;;;7.79;69.11
68654;BME280;55636;51.108;13.622;2022-10-26T05:58:39;100605.53;;;7.79;69.13
68654;BME280;55636;51.108;13.622;2022-10-26T05:59:41;100601.94;;;7.79;69.19
68654;BME280;55636;51.108;13.622;2022-10-26T06:03:12;100604.66;;;7.79;69.29
68654;BME280;55636;51.108;13.622;2022-10-26T06:05:54;100615.69;;;7.79;69.19
68654;BME280;55636;51.108;13.622;2022-10-26T06:06:57;100625.59;;;7.80;69.05
68654;BME280;55636;51.108;13.622;2022-10-26T06:08:00;100611.28;;;7.78;69.29
68654;BME280;55636;51.108;13.622;2022-10-26T06:09:03;100620.34;;;7.78;69.27
68654;BME280;55636;51.108;13.622;2022-10-26T06:10:06;100623.94;;;7.79;69.20
68654;BME280;55636;51.108;13.622;2022-10-26T06:11:09;100616.78;;;7.78;69.20
68654;BME280;55636;51.108;13.622;2022-10-26T06:12:12;100628.59;;;7.78;69.15
68654;BME280;55636;51.108;13.622;2022-10-26T06:13:21;100618.66;;;7.77;69.12
68654;BME280;55636;51.108;13.622;2022-10-26T06:14:23;100630.28;;;7.79;69.14